createdAt,value
2022-09-06T00:00:51.317Z,5.65
2022-09-06T00:03:24.578Z,6.12
2022-09-06T00:05:57.787Z,5.65
2022-09-06T00:08:30.709Z,5.70
2022-09-06T00:11:03.983Z,6.00
2022-09-06T00:13:37.175Z,5.30
2022-09-06T00:16:13.423Z,6.60
2022-09-06T00:18:47.113Z,5.75
2022-09-06T00:21:24.430Z,6.10
2022-09-06T00:23:57.447Z,5.45
2022-09-06T00:26:30.413Z,8.50
2022-09-06T00:29:03.467Z,9.35
2022-09-06T00:31:37.148Z,6.87
2022-09-06T00:34:10.050Z,6.37
2022-09-06T00:36:43.142Z,5.83
2022-09-06T00:39:16.232Z,5.62
2022-09-06T00:41:49.314Z,5.72
2022-09-06T00:44:22.405Z,5.45
2022-09-06T00:46:56.922Z,6.33
2022-09-06T00:49:36.465Z,5.65
2022-09-06T00:52:12.862Z,6.08
2022-09-06T00:54:45.914Z,5.65
2022-09-06T00:57:19.411Z,5.95
2022-09-06T00:59:52.809Z,5.85
2022-09-06T01:02:25.928Z,5.67
2022-09-06T01:04:59.494Z,5.92
2022-09-06T01:08:06.068Z,6.25
2022-09-06T01:11:07.530Z,5.95
2022-09-06T01:14:00.079Z,5.62
2022-09-06T01:17:05.239Z,6.15
2022-09-06T01:20:17.934Z,5.67
2022-09-06T01:23:06.488Z,5.95
2022-09-06T01:26:21.269Z,6.10
2022-09-06T01:28:55.573Z,5.67
2022-09-06T01:31:51.773Z,6.45
2022-09-06T01:34:41.687Z,6.53
2022-09-06T01:37:20.363Z,6.47
2022-09-06T01:39:53.325Z,7.58
2022-09-06T01:42:29.638Z,8.13
2022-09-06T01:45:06.669Z,7.12
2022-09-06T01:48:08.507Z,7.47
2022-09-06T01:51:07.322Z,6.85
2022-09-06T01:53:54.292Z,7.03
2022-09-06T01:56:50.372Z,6.12
2022-09-06T01:59:45.933Z,6.40
2022-09-06T02:02:56.750Z,6.70
2022-09-06T02:05:46.488Z,7.45
2022-09-06T02:08:24.546Z,6.87
2022-09-06T02:11:03.346Z,6.08
2022-09-06T02:13:40.386Z,6.90
2022-09-06T02:16:16.995Z,7.92
2022-09-06T02:18:57.413Z,6.97
2022-09-06T02:21:33.320Z,6.60
2022-09-06T02:24:10.302Z,7.97
2022-09-06T02:26:44.899Z,8.13
2022-09-06T02:29:19.217Z,7.28
2022-09-06T02:32:09.085Z,7.33
2022-09-06T02:34:42.941Z,6.60
2022-09-06T02:37:16.874Z,6.78
2022-09-06T02:39:49.832Z,7.35
2022-09-06T02:42:23.937Z,7.67
2022-09-06T02:44:56.712Z,8.08
2022-09-06T02:47:29.722Z,8.25
2022-09-06T02:50:02.724Z,8.35
2022-09-06T02:52:35.646Z,7.50
2022-09-06T02:55:09.633Z,7.55
2022-09-06T02:57:44.000Z,7.35
2022-09-06T03:00:17.294Z,8.63
2022-09-06T03:02:50.252Z,8.30
2022-09-06T03:05:24.244Z,7.67
2022-09-06T03:10:29.925Z,7.95
2022-09-06T03:13:03.735Z,8.30
2022-09-06T03:15:36.686Z,8.15
2022-09-06T03:18:09.480Z,8.28
2022-09-06T03:20:42.823Z,8.10
2022-09-06T03:23:15.683Z,8.65
2022-09-06T03:25:49.995Z,12.65
2022-09-06T03:28:23.937Z,12.45
2022-09-06T03:30:58.529Z,11.60
2022-09-06T03:33:31.649Z,10.58
2022-09-06T03:36:05.635Z,10.20
2022-09-06T03:38:38.813Z,9.45
2022-09-06T03:41:11.738Z,8.55
2022-09-06T03:43:44.682Z,9.63
2022-09-06T03:46:17.722Z,9.35
2022-09-06T03:48:50.552Z,9.25
2022-09-06T03:51:23.280Z,9.48
2022-09-06T03:53:56.297Z,9.80
2022-09-06T03:56:29.135Z,9.65
2022-09-06T03:59:02.323Z,11.93
2022-09-06T04:04:08.730Z,8.60
2022-09-06T04:06:45.675Z,9.90
2022-09-06T04:09:19.671Z,9.15
2022-09-06T04:11:52.496Z,8.95
2022-09-06T04:14:25.523Z,8.68
2022-09-06T04:16:58.346Z,9.13
2022-09-06T04:19:31.040Z,8.53
2022-09-06T04:22:03.913Z,8.35
2022-09-06T04:24:37.627Z,7.50
2022-09-06T04:27:10.512Z,6.47
2022-09-06T04:29:44.606Z,7.50
2022-09-06T04:32:17.375Z,7.15
2022-09-06T04:34:50.239Z,7.20
2022-09-06T04:37:23.316Z,6.55
2022-09-06T04:39:56.025Z,5.97
2022-09-06T04:42:28.722Z,6.22
2022-09-06T04:45:01.377Z,6.70
2022-09-06T04:47:34.840Z,6.53
2022-09-06T04:50:08.446Z,6.95
2022-09-06T04:52:41.442Z,6.58
2022-09-06T04:55:15.137Z,5.53
2022-09-06T04:57:51.135Z,6.53
2022-09-06T05:00:23.041Z,6.42
2022-09-06T05:02:56.211Z,6.70
2022-09-06T05:05:29.563Z,6.12
2022-09-06T05:08:02.903Z,6.50
2022-09-06T05:10:36.009Z,5.40
2022-09-06T05:13:09.275Z,5.63
2022-09-06T05:15:42.769Z,5.13
2022-09-06T05:18:16.319Z,6.83
2022-09-06T05:20:56.659Z,6.37
2022-09-06T05:23:30.157Z,6.97
2022-09-06T05:26:04.617Z,6.50
2022-09-06T05:28:38.643Z,6.20
2022-09-06T05:31:14.632Z,6.65
2022-09-06T05:33:47.615Z,6.97
2022-09-06T05:36:20.905Z,7.03
2022-09-06T05:38:54.926Z,7.12
2022-09-06T05:41:28.723Z,7.30
2022-09-06T05:44:01.841Z,6.37
2022-09-06T05:46:34.633Z,6.70
2022-09-06T05:49:08.406Z,6.47
2022-09-06T05:51:42.188Z,6.67
2022-09-06T05:54:16.589Z,6.28
2022-09-06T05:56:49.621Z,6.30
2022-09-06T05:59:22.699Z,10.13
2022-09-06T06:01:56.357Z,6.25
2022-09-06T06:04:29.162Z,4.47
2022-09-06T06:07:02.433Z,4.08
2022-09-06T06:09:35.485Z,4.20
2022-09-06T06:12:08.536Z,4.62
2022-09-06T06:17:14.610Z,3.77
2022-09-06T06:19:47.832Z,4.70
2022-09-06T06:22:20.774Z,4.30
2022-09-06T06:24:54.232Z,4.03
2022-09-06T06:27:27.015Z,3.80
2022-09-06T06:29:59.931Z,3.77
2022-09-06T06:32:34.287Z,3.58
2022-09-06T06:35:09.252Z,3.40
2022-09-06T06:37:42.788Z,3.75
2022-09-06T06:40:15.600Z,4.47
2022-09-06T06:42:48.770Z,3.83
2022-09-06T06:45:22.412Z,4.08
2022-09-06T06:47:55.143Z,3.67
2022-09-06T06:50:28.007Z,3.80
2022-09-06T06:53:00.738Z,3.72
2022-09-06T06:55:33.875Z,4.00
2022-09-06T06:58:08.030Z,3.98
2022-09-06T07:03:15.282Z,3.30
2022-09-06T07:08:23.156Z,3.30
2022-09-06T07:10:56.952Z,3.35
2022-09-06T07:13:29.645Z,3.55
2022-09-06T07:16:25.816Z,4.12
2022-09-06T07:18:58.563Z,3.37
2022-09-06T07:21:39.187Z,4.12
2022-09-06T07:24:10.873Z,2.92
2022-09-06T07:29:18.173Z,2.80
2022-09-06T07:34:26.251Z,2.47
2022-09-06T07:36:59.486Z,2.15
2022-09-06T07:39:34.257Z,2.75
2022-09-06T07:42:07.267Z,2.12
2022-09-06T07:44:39.998Z,2.00
2022-09-06T07:55:02.955Z,1.87
2022-09-06T07:57:35.935Z,2.37
2022-09-06T08:00:11.527Z,2.67
2022-09-06T08:02:44.294Z,2.35
2022-09-06T08:10:28.354Z,1.77
2022-09-06T08:13:01.018Z,2.45
2022-09-06T08:15:33.809Z,2.05
2022-09-06T08:18:07.004Z,2.12
2022-09-06T08:20:40.092Z,2.00
2022-09-06T08:23:15.095Z,1.85
2022-09-06T08:25:58.987Z,2.10
2022-09-06T08:28:31.773Z,2.10
2022-09-06T08:31:14.018Z,1.80
2022-09-06T08:33:48.108Z,1.30
2022-09-06T08:36:21.972Z,1.60
2022-09-06T08:38:55.412Z,1.40
2022-09-06T08:41:57.708Z,1.30
2022-09-06T08:44:55.982Z,1.37
2022-09-06T08:47:23.449Z,1.15
2022-09-06T08:50:07.287Z,1.15
2022-09-06T08:55:41.276Z,1.47
2022-09-06T08:58:30.888Z,1.27
2022-09-06T09:01:18.840Z,1.10
2022-09-06T09:03:51.539Z,1.00
2022-09-06T09:06:25.702Z,1.10
2022-09-06T09:09:06.538Z,1.35
2022-09-06T09:11:40.487Z,1.10
2022-09-06T09:14:24.004Z,0.93
2022-09-06T09:17:16.351Z,1.25
2022-09-06T09:19:49.384Z,1.10
2022-09-06T09:22:22.544Z,1.05
2022-09-06T09:24:55.958Z,1.07
2022-09-06T09:27:30.424Z,1.00
2022-09-06T09:32:46.765Z,0.90
2022-09-06T09:35:36.947Z,1.02
2022-09-06T09:38:12.727Z,1.00
2022-09-06T09:41:04.268Z,0.90
2022-09-06T09:43:41.174Z,1.80
2022-09-06T09:46:30.727Z,1.20
2022-09-06T09:49:13.839Z,1.10
2022-09-06T09:51:50.829Z,1.40
2022-09-06T09:54:35.834Z,1.10
2022-09-06T09:57:18.514Z,1.10
2022-09-06T10:00:06.393Z,1.22
2022-09-06T10:02:42.218Z,1.80
2022-09-06T10:05:20.054Z,1.02
2022-09-06T10:07:57.402Z,1.10
2022-09-06T10:10:34.860Z,1.00
2022-09-06T10:13:30.137Z,1.37
2022-09-06T10:16:04.087Z,1.00
2022-09-06T10:18:43.206Z,0.98
2022-09-06T10:21:20.241Z,0.95
2022-09-06T10:24:30.694Z,0.80
2022-09-06T10:27:00.341Z,0.60
2022-09-06T10:29:56.405Z,0.70
2022-09-06T10:32:50.933Z,0.88
2022-09-06T10:35:40.181Z,1.30
2022-09-06T10:38:36.048Z,0.70
2022-09-06T10:41:13.912Z,1.00
2022-09-06T10:44:09.581Z,1.65
2022-09-06T10:46:46.584Z,0.78
2022-09-06T10:49:21.692Z,0.72
2022-09-06T10:52:02.938Z,0.72
2022-09-06T10:54:38.731Z,0.80
2022-09-06T11:00:08.623Z,0.65
2022-09-06T11:05:50.414Z,1.10
2022-09-06T11:09:00.410Z,0.80
2022-09-06T11:11:46.117Z,0.70
2022-09-06T11:14:20.742Z,0.65
2022-09-06T11:17:01.136Z,0.98
2022-09-06T11:20:06.196Z,0.57
2022-09-06T11:23:01.375Z,0.90
2022-09-06T11:26:06.829Z,0.80
2022-09-06T11:28:47.130Z,0.75
2022-09-06T11:34:14.343Z,1.22
2022-09-06T11:37:02.511Z,0.88
2022-09-06T11:42:46.651Z,0.70
2022-09-06T11:45:44.380Z,0.70
2022-09-06T11:48:36.947Z,0.55
2022-09-06T11:51:12.713Z,0.78
2022-09-06T11:53:58.010Z,0.72
2022-09-06T11:56:37.859Z,0.80
2022-09-06T11:59:24.122Z,0.98
2022-09-06T12:02:07.315Z,0.93
2022-09-06T12:05:06.530Z,0.95
2022-09-06T12:07:44.243Z,1.50
2022-09-06T12:10:42.552Z,0.85
2022-09-06T12:13:52.476Z,1.82
2022-09-06T12:16:25.997Z,1.75
2022-09-06T12:19:00.760Z,1.20
2022-09-06T12:21:43.857Z,1.20
2022-09-06T12:24:41.290Z,1.10
2022-09-06T12:27:18.943Z,1.15
2022-09-06T12:30:05.827Z,0.80
2022-09-06T12:32:42.736Z,0.50
2022-09-06T12:38:07.255Z,0.72
2022-09-06T12:40:47.091Z,1.12
2022-09-06T12:43:20.828Z,0.70
2022-09-06T12:45:54.887Z,0.60
2022-09-06T12:48:31.575Z,0.70
2022-09-06T12:51:12.232Z,0.62
2022-09-06T12:54:01.453Z,0.82
2022-09-06T12:56:36.018Z,0.98
2022-09-06T12:59:16.852Z,0.53
2022-09-06T13:02:03.874Z,1.10
2022-09-06T13:04:45.936Z,0.93
2022-09-06T13:07:21.963Z,1.17
2022-09-06T13:09:58.163Z,0.98
2022-09-06T13:12:36.855Z,0.70
2022-09-06T13:15:17.504Z,0.70
2022-09-06T13:17:51.001Z,0.60
2022-09-06T13:20:30.764Z,0.75
2022-09-06T13:23:16.435Z,0.90
2022-09-06T13:25:53.031Z,0.70
2022-09-06T13:28:30.012Z,0.80
2022-09-06T13:31:17.180Z,0.60
2022-09-06T13:34:00.827Z,0.60
2022-09-06T13:36:35.355Z,0.55
2022-09-06T13:39:08.727Z,0.80
2022-09-06T13:41:43.015Z,0.73
2022-09-06T13:46:55.681Z,0.60
2022-09-06T13:49:29.954Z,0.78
2022-09-06T13:52:06.188Z,0.90
2022-09-06T13:54:40.422Z,0.70
2022-09-06T13:57:13.788Z,0.50
2022-09-06T14:02:21.206Z,0.62
2022-09-06T14:04:53.980Z,0.70
2022-09-06T14:07:27.925Z,0.80
2022-09-06T14:10:01.604Z,0.57
2022-09-06T14:12:35.249Z,0.60
2022-09-06T14:15:10.272Z,0.60
2022-09-06T14:20:15.480Z,0.70
2022-09-06T14:22:49.710Z,0.82
2022-09-06T14:25:23.554Z,0.82
2022-09-06T14:27:58.095Z,0.68
2022-09-06T14:30:32.154Z,0.72
2022-09-06T14:33:06.772Z,0.50
2022-09-06T14:35:41.602Z,0.60
2022-09-06T14:38:14.860Z,0.57
2022-09-06T14:40:48.719Z,0.75
2022-09-06T14:43:24.144Z,0.65
2022-09-06T14:45:58.941Z,0.70
2022-09-06T14:48:32.957Z,0.62
2022-09-06T14:51:23.587Z,0.47
2022-09-06T14:54:06.973Z,0.70
2022-09-06T14:56:42.156Z,1.27
2022-09-06T14:59:15.759Z,1.00
2022-09-06T15:01:48.814Z,0.90
2022-09-06T15:04:22.278Z,0.80
2022-09-06T15:06:56.641Z,1.00
2022-09-06T15:09:29.632Z,0.82
2022-09-06T15:12:02.642Z,0.80
2022-09-06T15:14:37.775Z,1.13
2022-09-06T15:17:11.504Z,0.90
2022-09-06T15:19:45.927Z,0.90
2022-09-06T15:22:20.906Z,1.10
2022-09-06T15:24:53.907Z,0.80
2022-09-06T15:27:26.845Z,1.00
2022-09-06T15:29:59.989Z,1.10
2022-09-06T15:32:33.859Z,0.80
2022-09-06T15:35:07.495Z,1.05
2022-09-06T15:37:40.651Z,0.85
2022-09-06T15:40:14.132Z,1.90
2022-09-06T15:42:47.413Z,1.00
2022-09-06T15:45:20.709Z,0.80
2022-09-06T15:47:56.099Z,1.02
2022-09-06T15:50:50.454Z,0.98
2022-09-06T15:53:03.961Z,1.00
2022-09-06T15:55:48.964Z,1.00
2022-09-06T15:58:22.770Z,1.10
2022-09-06T16:01:14.883Z,0.68
2022-09-06T16:03:54.922Z,0.70
2022-09-06T16:06:29.212Z,0.85
2022-09-06T16:09:09.746Z,1.05
2022-09-06T16:11:44.301Z,0.80
2022-09-06T16:14:18.863Z,1.27
2022-09-06T16:16:54.529Z,1.40
2022-09-06T16:19:27.978Z,1.40
2022-09-06T16:22:01.186Z,1.22
2022-09-06T16:24:34.534Z,1.60
2022-09-06T16:27:07.497Z,1.32
2022-09-06T16:29:40.772Z,1.30
2022-09-06T16:32:13.829Z,1.22
2022-09-06T16:34:47.304Z,1.20
2022-09-06T16:37:21.141Z,1.60
2022-09-06T16:39:57.586Z,1.12
2022-09-06T16:42:30.740Z,1.30
2022-09-06T16:45:05.101Z,1.45
2022-09-06T16:47:38.317Z,1.60
2022-09-06T16:50:11.862Z,1.87
2022-09-06T16:52:45.228Z,1.40
2022-09-06T16:55:18.273Z,2.33
2022-09-06T16:57:51.937Z,1.67
2022-09-06T17:00:25.190Z,1.62
2022-09-06T17:02:59.677Z,1.22
2022-09-06T17:05:34.835Z,2.10
2022-09-06T17:08:09.370Z,1.60
2022-09-06T17:10:47.301Z,0.98
2022-09-06T17:13:21.570Z,1.20
2022-09-06T17:16:21.887Z,1.52
2022-09-06T17:18:53.862Z,1.20
2022-09-06T17:21:27.223Z,1.27
2022-09-06T17:24:02.224Z,1.25
2022-09-06T17:26:38.627Z,1.87
2022-09-06T17:29:11.442Z,1.45
2022-09-06T17:31:45.566Z,1.67
2022-09-06T17:34:18.539Z,1.07
2022-09-06T17:36:51.809Z,2.80
2022-09-06T17:39:24.941Z,2.15
2022-09-06T17:41:58.706Z,1.80
2022-09-06T17:44:32.643Z,1.82
2022-09-06T17:47:14.551Z,1.57
2022-09-06T17:49:41.895Z,1.40
2022-09-06T17:52:14.973Z,1.70
2022-09-06T17:54:48.494Z,1.65
2022-09-06T17:57:21.618Z,1.22
2022-09-06T17:59:55.051Z,1.60
2022-09-06T18:02:29.005Z,1.67
2022-09-06T18:05:02.186Z,1.87
2022-09-06T18:07:35.898Z,1.85
2022-09-06T18:10:10.357Z,2.00
2022-09-06T18:12:45.682Z,1.80
2022-09-06T18:15:18.878Z,2.00
2022-09-06T18:17:52.717Z,5.62
2022-09-06T18:20:27.927Z,2.60
2022-09-06T18:23:01.027Z,2.72
2022-09-06T18:25:33.970Z,2.10
2022-09-06T18:28:08.185Z,2.40
2022-09-06T18:30:41.769Z,2.17
2022-09-06T18:33:16.184Z,2.30
2022-09-06T18:35:51.598Z,2.08
2022-09-06T18:38:25.171Z,2.02
2022-09-06T18:41:01.200Z,2.10
2022-09-06T18:43:38.504Z,1.87
2022-09-06T18:46:14.052Z,2.02
2022-09-06T18:48:47.317Z,1.98
2022-09-06T18:51:20.920Z,2.02
2022-09-06T18:53:54.462Z,2.98
2022-09-06T18:56:28.491Z,2.15
2022-09-06T18:59:02.584Z,2.12
2022-09-06T19:04:10.035Z,2.17
2022-09-06T19:09:18.422Z,2.20
2022-09-06T19:11:53.578Z,2.58
2022-09-06T19:14:28.063Z,2.10
2022-09-06T19:17:01.041Z,2.02
2022-09-06T19:19:34.201Z,1.80
2022-09-06T19:22:07.634Z,1.80
2022-09-06T19:24:40.756Z,1.50
2022-09-06T19:27:14.221Z,1.95
2022-09-06T19:29:47.622Z,1.87
2022-09-06T19:32:22.204Z,2.20
2022-09-06T19:34:55.716Z,2.00
2022-09-06T19:37:29.556Z,2.12
2022-09-06T19:40:02.706Z,2.10
2022-09-06T19:42:35.996Z,2.40
2022-09-06T19:45:10.091Z,1.95
2022-09-06T19:50:15.481Z,2.12
2022-09-06T19:52:49.621Z,2.30
2022-09-06T19:55:22.964Z,2.75
2022-09-06T19:57:55.820Z,2.60
2022-09-06T20:00:33.514Z,2.37
2022-09-06T20:03:03.352Z,2.15
2022-09-06T20:05:36.902Z,2.05
2022-09-06T20:08:09.774Z,2.00
2022-09-06T20:10:51.458Z,2.37
2022-09-06T20:13:25.363Z,2.40
2022-09-06T20:15:59.130Z,2.17
2022-09-06T20:18:31.937Z,2.00
2022-09-06T20:21:05.351Z,2.22
2022-09-06T20:23:38.485Z,2.37
2022-09-06T20:26:17.071Z,2.00
2022-09-06T20:28:53.514Z,2.15
2022-09-06T20:31:28.258Z,2.40
2022-09-06T20:34:03.192Z,2.60
2022-09-06T20:36:36.911Z,3.20
2022-09-06T20:39:10.783Z,2.80
2022-09-06T20:41:43.983Z,2.85
2022-09-06T20:44:16.993Z,2.70
2022-09-06T20:46:51.107Z,2.58
2022-09-06T20:49:23.858Z,2.33
2022-09-06T20:51:57.127Z,2.27
2022-09-06T20:54:30.251Z,2.52
2022-09-06T20:57:03.434Z,2.85
2022-09-06T20:59:36.945Z,2.25
2022-09-06T21:02:10.386Z,2.40
2022-09-06T21:04:43.203Z,2.60
2022-09-06T21:07:16.178Z,2.55
2022-09-06T21:09:49.054Z,2.70
2022-09-06T21:12:22.012Z,2.60
2022-09-06T21:14:55.525Z,2.73
2022-09-06T21:17:28.537Z,2.50
2022-09-06T21:20:01.881Z,2.47
2022-09-06T21:22:35.167Z,2.13
2022-09-06T21:25:08.866Z,2.42
2022-09-06T21:27:43.153Z,2.33
2022-09-06T21:30:16.290Z,2.42
2022-09-06T21:32:50.173Z,2.25
2022-09-06T21:35:23.597Z,2.35
2022-09-06T21:37:57.149Z,2.12
2022-09-06T21:40:30.080Z,2.17
2022-09-06T21:43:03.352Z,2.45
2022-09-06T21:45:39.266Z,2.70
2022-09-06T21:48:12.232Z,2.77
2022-09-06T21:50:48.465Z,2.92
2022-09-06T21:53:23.199Z,2.40
2022-09-06T21:56:04.063Z,2.58
2022-09-06T21:58:37.636Z,2.20
2022-09-06T22:01:11.387Z,2.80
2022-09-06T22:03:46.024Z,2.42
2022-09-06T22:06:28.958Z,2.42
2022-09-06T22:09:06.188Z,2.00
2022-09-06T22:11:44.538Z,2.62
2022-09-06T22:14:17.634Z,2.17
2022-09-06T22:16:52.367Z,2.67
2022-09-06T22:19:25.447Z,2.08
2022-09-06T22:21:58.436Z,2.65
2022-09-06T22:24:31.649Z,2.30
2022-09-06T22:27:04.734Z,2.42
2022-09-06T22:29:38.044Z,2.45
2022-09-06T22:32:11.031Z,2.60
2022-09-06T22:34:44.941Z,3.08
2022-09-06T22:37:18.300Z,3.47
2022-09-06T22:39:51.985Z,3.72
2022-09-06T22:42:25.423Z,6.47
2022-09-06T22:44:58.534Z,3.72
2022-09-06T22:47:31.403Z,3.33
2022-09-06T22:50:04.524Z,3.42
2022-09-06T22:52:38.834Z,3.30
2022-09-06T22:55:12.466Z,2.47
2022-09-06T22:57:46.107Z,3.33
2022-09-06T23:00:19.178Z,3.65
2022-09-06T23:02:52.730Z,3.27
2022-09-06T23:05:26.190Z,2.47
2022-09-06T23:08:00.763Z,2.25
2022-09-06T23:10:34.719Z,1.92
2022-09-06T23:15:43.181Z,2.12
2022-09-06T23:18:16.592Z,1.77
2022-09-06T23:20:49.659Z,2.27
2022-09-06T23:23:22.623Z,2.70
2022-09-06T23:25:56.010Z,2.55
2022-09-06T23:28:30.822Z,2.77
2022-09-06T23:31:06.984Z,2.58
2022-09-06T23:33:42.053Z,2.47
2022-09-06T23:36:16.152Z,2.52
2022-09-06T23:38:49.268Z,2.55
2022-09-06T23:41:22.239Z,1.80
2022-09-06T23:43:55.206Z,2.33
2022-09-06T23:46:28.268Z,2.90
2022-09-06T23:49:01.587Z,2.47
2022-09-06T23:51:34.497Z,2.72
2022-09-06T23:54:07.511Z,2.87
2022-09-06T23:56:40.492Z,2.90
2022-09-06T23:59:13.421Z,2.35
